Time;durP1;ratioP1;P1;durP2;ratioP2;P2;SDS_P1;SDS_P2;PMS_P1;PMS_P2;Temp;Humidity;BMP_temperature;BMP_pressure;BME280_temperature;BME280_humidity;BME280_pressure;Samples;Min_cycle;Max_cycle;Signal;HPM_P1;HPM_P2
2020/12/11 00:02:17;;;;;;;8.95;8.05;;;2.20;99.90;;;;;;5063564;28;20233;-74
2020/12/11 00:04:44;;;;;;;8.85;7.95;;;2.20;99.90;;;;;;5059124;28;20503;-75
2020/12/11 00:07:12;;;;;;;8.55;7.70;;;2.20;1.00;;;;;;5064560;28;20237;-73
2020/12/11 00:09:39;;;;;;;9.10;8.20;;;2.10;1.00;;;;;;5063802;28;21952;-74
2020/12/11 00:12:06;;;;;;;8.30;7.50;;;2.10;1.00;;;;;;5065230;28;20217;-74
2020/12/11 00:14:34;;;;;;;7.60;6.88;;;2.00;1.00;;;;;;5064484;28;20226;-74
2020/12/11 00:17:01;;;;;;;7.88;6.53;;;2.10;1.00;;;;;;5064644;28;20234;-75
2020/12/11 00:19:28;;;;;;;7.47;6.20;;;1.90;99.90;;;;;;5064170;28;20221;-75
2020/12/11 00:21:55;;;;;;;10.98;8.48;;;1.90;99.90;;;;;;5063552;28;20334;-75
2020/12/11 00:24:23;;;;;;;9.57;8.60;;;1.90;1.00;;;;;;5066779;28;20726;-75
2020/12/11 00:26:50;;;;;;;11.10;9.18;;;1.90;1.00;;;;;;5063438;28;20252;-75
2020/12/11 00:29:18;;;;;;;8.93;7.80;;;2.00;99.90;;;;;;5062370;28;20219;-73
2020/12/11 00:31:45;;;;;;;9.40;8.38;;;2.00;1.00;;;;;;5062096;28;20216;-75
2020/12/11 00:34:12;;;;;;;10.55;7.95;;;2.10;1.00;;;;;;5060847;28;20215;-76
2020/12/11 00:36:40;;;;;;;9.35;7.38;;;2.20;1.00;;;;;;5060941;28;20224;-74
2020/12/11 00:39:07;;;;;;;9.35;7.97;;;2.10;99.90;;;;;;5062829;28;20206;-74
2020/12/11 00:41:40;;;;;;;8.85;7.53;;;2.10;99.90;;;;;;5056402;28;20232;-74
2020/12/11 00:44:07;;;;;;;9.80;8.90;;;2.30;56.90;;;;;;5058336;28;20224;-75
2020/12/11 00:46:34;;;;;;;8.95;7.97;;;2.30;13.40;;;;;;5065913;28;20230;-75
2020/12/11 00:49:01;;;;;;;11.68;9.02;;;2.30;99.90;;;;;;5062324;28;20498;-75
2020/12/11 00:51:28;;;;;;;10.82;8.93;;;2.30;1.00;;;;;;5061027;28;20218;-75
2020/12/11 00:53:55;;;;;;;10.55;8.50;;;2.30;99.90;;;;;;5056615;28;20231;-75
2020/12/11 00:56:23;;;;;;;10.88;8.57;;;2.30;40.90;;;;;;5061614;28;20234;-74
2020/12/11 00:58:51;;;;;;;10.98;9.68;;;2.20;1.00;;;;;;5058626;28;20233;-74
2020/12/11 01:01:18;;;;;;;12.88;10.27;;;2.20;99.90;;;;;;5061609;28;20231;-75
2020/12/11 01:03:46;;;;;;;11.98;8.73;;;2.20;59.50;;;;;;5062583;28;20241;-75
2020/12/11 01:06:13;;;;;;;11.30;9.75;;;2.20;99.90;;;;;;5059533;28;20386;-75
2020/12/11 01:08:40;;;;;;;11.70;7.93;;;2.10;99.90;;;;;;5058125;28;20637;-75
2020/12/11 01:11:07;;;;;;;10.80;9.15;;;2.10;1.00;;;;;;5049084;28;20212;-74
2020/12/11 01:13:34;;;;;;;11.75;9.55;;;2.00;99.90;;;;;;5059827;28;20227;-74
2020/12/11 01:16:02;;;;;;;10.90;9.45;;;2.00;1.00;;;;;;5052808;28;20669;-74
2020/12/11 01:18:29;;;;;;;10.48;8.27;;;1.80;1.00;;;;;;5063522;28;20214;-74
2020/12/11 01:20:56;;;;;;;14.60;9.45;;;1.80;1.00;;;;;;5059669;28;20231;-76
2020/12/11 01:23:23;;;;;;;12.65;10.15;;;1.70;99.90;;;;;;5068066;28;20856;-75
2020/12/11 01:25:51;;;;;;;11.80;9.70;;;1.70;99.90;;;;;;5065183;28;20226;-75
2020/12/11 01:28:19;;;;;;;12.13;9.38;;;1.70;55.10;;;;;;5063232;28;20252;-76
2020/12/11 01:30:47;;;;;;;10.45;8.43;;;1.70;99.90;;;;;;5061337;28;20222;-72
2020/12/11 01:33:15;;;;;;;12.52;8.93;;;1.70;99.90;;;;;;5064150;28;20219;-74
2020/12/11 01:35:44;;;;;;;13.10;9.27;;;1.70;1.00;;;;;;5061297;28;20307;-74
2020/12/11 01:38:11;;;;;;;11.57;8.00;;;1.60;1.00;;;;;;5062593;28;20624;-75
2020/12/11 01:40:38;;;;;;;10.88;9.43;;;1.50;99.90;;;;;;5061371;28;20213;-74
2020/12/11 01:43:05;;;;;;;12.10;9.43;;;1.40;99.90;;;;;;5063655;28;20212;-74
2020/12/11 01:45:33;;;;;;;13.38;10.20;;;1.40;99.90;;;;;;5050552;28;20292;-74
2020/12/11 01:48:00;;;;;;;11.65;8.70;;;1.40;99.90;;;;;;5061885;28;20236;-74
2020/12/11 01:50:28;;;;;;;11.18;8.73;;;1.30;99.90;;;;;;5063751;28;20625;-73
2020/12/11 01:52:55;;;;;;;14.45;10.15;;;1.40;99.90;;;;;;5062092;28;20209;-74
2020/12/11 01:55:22;;;;;;;11.40;9.07;;;1.50;99.90;;;;;;5060830;28;20219;-74
2020/12/11 01:57:54;;;;;;;12.20;9.43;;;1.50;99.90;;;;;;5061837;28;20235;-74
2020/12/11 02:00:22;;;;;;;12.63;9.15;;;1.40;99.90;;;;;;5063296;28;20222;-74
2020/12/11 02:03:01;;;;;;;12.23;9.27;;;1.40;99.90;;;;;;5059473;28;20625;-75
2020/12/11 02:05:29;;;;;;;13.35;9.52;;;1.40;99.90;;;;;;5063170;28;20707;-74
2020/12/11 02:07:57;;;;;;;13.90;9.13;;;1.40;99.90;;;;;;5062465;28;20301;-74
2020/12/11 02:10:24;;;;;;;13.18;9.73;;;1.40;99.90;;;;;;5062020;28;20215;-73
2020/12/11 02:12:51;;;;;;;12.32;10.10;;;1.40;99.90;;;;;;5055585;28;20204;-73
2020/12/11 02:15:18;;;;;;;14.27;10.93;;;1.30;99.90;;;;;;5062264;28;20271;-74
2020/12/11 02:17:47;;;;;;;14.18;10.40;;;1.30;99.90;;;;;;5061597;28;20237;-74
2020/12/11 02:20:14;;;;;;;15.00;10.00;;;1.20;99.90;;;;;;5060666;28;20228;-74
2020/12/11 02:22:42;;;;;;;16.08;11.05;;;1.30;99.90;;;;;;5060805;28;20292;-72
2020/12/11 02:25:09;;;;;;;15.40;10.63;;;1.20;1.00;;;;;;5061769;28;20269;-74
2020/12/11 02:27:38;;;;;;;14.95;10.10;;;1.20;1.00;;;;;;5060673;28;20336;-74
2020/12/11 02:30:06;;;;;;;18.13;11.73;;;1.10;99.90;;;;;;5052423;28;20206;-74
2020/12/11 02:32:33;;;;;;;15.90;12.32;;;1.20;1.00;;;;;;5060401;28;20681;-75
2020/12/11 02:35:00;;;;;;;15.90;10.98;;;1.20;1.00;;;;;;5057342;28;21142;-73
2020/12/11 02:37:27;;;;;;;15.77;10.48;;;1.10;1.00;;;;;;5055664;28;20646;-74
2020/12/11 02:39:55;;;;;;;16.60;10.70;;;1.00;1.00;;;;;;5063100;28;20231;-74
2020/12/11 02:42:22;;;;;;;15.55;11.57;;;0.90;1.00;;;;;;5059462;28;20752;-74
2020/12/11 02:44:49;;;;;;;17.05;11.38;;;0.90;1.00;;;;;;5060110;28;20215;-74
2020/12/11 02:47:17;;;;;;;17.42;11.05;;;0.90;1.00;;;;;;5058204;28;20236;-74
2020/12/11 02:49:44;;;;;;;16.40;10.88;;;0.80;1.00;;;;;;5061352;28;20221;-75
2020/12/11 02:52:11;;;;;;;18.40;12.18;;;0.80;1.00;;;;;;5057381;28;20218;-75
2020/12/11 02:54:38;;;;;;;15.52;11.18;;;0.90;1.00;;;;;;5064542;28;20227;-75
2020/12/11 02:57:06;;;;;;;18.52;12.10;;;0.80;1.00;;;;;;5063034;28;20234;-73
2020/12/11 02:59:33;;;;;;;16.98;11.55;;;0.70;1.00;;;;;;5060400;28;20225;-72
2020/12/11 03:02:00;;;;;;;18.70;11.95;;;0.80;1.00;;;;;;5059979;28;20227;-74
2020/12/11 03:04:27;;;;;;;20.58;13.68;;;0.70;1.00;;;;;;5066800;28;20260;-74
2020/12/11 03:06:54;;;;;;;21.35;13.10;;;0.70;1.00;;;;;;5065997;28;20239;-74
2020/12/11 03:09:21;;;;;;;16.20;11.65;;;0.70;1.00;;;;;;5065201;28;20214;-74
2020/12/11 03:11:48;;;;;;;18.52;12.57;;;0.70;1.00;;;;;;5061490;28;20683;-74
2020/12/11 03:14:17;;;;;;;20.02;12.68;;;0.70;1.00;;;;;;5065200;28;20223;-75
2020/12/11 03:16:44;;;;;;;20.70;12.60;;;0.70;1.00;;;;;;5064485;28;20229;-74
2020/12/11 03:19:11;;;;;;;20.85;12.50;;;0.70;1.00;;;;;;5061834;28;20219;-74
2020/12/11 03:21:38;;;;;;;22.15;14.23;;;0.60;1.00;;;;;;5065876;28;20754;-74
2020/12/11 03:24:05;;;;;;;18.98;12.75;;;0.60;1.00;;;;;;5066025;28;20212;-74
2020/12/11 03:26:33;;;;;;;17.17;11.45;;;0.60;1.00;;;;;;5063102;28;20244;-74
2020/12/11 03:29:00;;;;;;;19.67;14.25;;;0.60;1.00;;;;;;5071942;28;20265;-75
2020/12/11 03:31:28;;;;;;;18.60;13.00;;;0.50;1.00;;;;;;5063049;28;20218;-74
2020/12/11 03:33:55;;;;;;;18.63;13.13;;;0.60;1.00;;;;;;5065853;28;20231;-75
2020/12/11 03:36:22;;;;;;;16.10;11.73;;;0.70;1.00;;;;;;5063136;28;20246;-75
2020/12/11 03:38:49;;;;;;;17.88;12.40;;;0.60;1.00;;;;;;5065844;28;20208;-75
2020/12/11 03:41:17;;;;;;;17.02;12.30;;;0.60;1.00;;;;;;5064445;28;20265;-74
2020/12/11 03:43:44;;;;;;;21.00;13.82;;;0.60;1.00;;;;;;5063056;28;20252;-75
2020/12/11 03:46:18;;;;;;;17.50;11.55;;;0.60;1.00;;;;;;5058703;28;20287;-75
2020/12/11 03:48:47;;;;;;;22.25;13.68;;;0.60;1.00;;;;;;5053014;28;20202;-75
2020/12/11 03:51:18;;;;;;;20.58;13.93;;;0.70;1.00;;;;;;5066062;28;20214;-75
2020/12/11 03:53:46;;;;;;;18.63;12.43;;;0.60;1.00;;;;;;5063358;28;20218;-75
2020/12/11 03:56:14;;;;;;;20.63;13.63;;;0.70;1.00;;;;;;5065283;28;20246;-75
2020/12/11 03:58:41;;;;;;;18.60;12.63;;;0.70;1.00;;;;;;5064031;28;20240;-76
2020/12/11 04:01:09;;;;;;;22.52;14.40;;;0.70;1.00;;;;;;5065586;28;20300;-74
2020/12/11 04:03:36;;;;;;;19.60;13.77;;;0.60;1.00;;;;;;5061571;28;20891;-75
2020/12/11 04:06:07;;;;;;;21.27;14.70;;;0.50;1.00;;;;;;5066641;28;21043;-74
2020/12/11 04:08:34;;;;;;;22.55;13.55;;;0.50;1.00;;;;;;5065007;28;20225;-73
2020/12/11 04:11:04;;;;;;;18.73;13.02;;;0.60;1.00;;;;;;5065136;28;20217;-75
2020/12/11 04:13:31;;;;;;;18.83;12.88;;;0.50;1.00;;;;;;5062311;28;20274;-74
2020/12/11 04:15:59;;;;;;;20.42;12.75;;;0.50;1.00;;;;;;5066021;28;20298;-74
2020/12/11 04:18:26;;;;;;;19.65;13.07;;;0.50;1.00;;;;;;5061732;28;20225;-77
2020/12/11 04:20:55;;;;;;;21.77;13.43;;;0.50;1.00;;;;;;5064059;28;20744;-75
2020/12/11 04:23:24;;;;;;;21.75;14.15;;;0.50;1.00;;;;;;5065319;28;20242;-75
2020/12/11 04:25:51;;;;;;;22.23;13.80;;;0.40;1.00;;;;;;5068591;28;20341;-75
2020/12/11 04:28:19;;;;;;;18.65;12.40;;;0.40;1.00;;;;;;5064868;28;20224;-75
2020/12/11 04:30:48;;;;;;;19.42;12.63;;;0.40;1.00;;;;;;5064252;28;20267;-75
2020/12/11 04:33:16;;;;;;;21.65;13.52;;;0.40;1.00;;;;;;5065108;28;20224;-74
2020/12/11 04:35:43;;;;;;;17.67;11.40;;;0.40;1.00;;;;;;5055546;28;20275;-74
2020/12/11 04:38:10;;;;;;;21.63;12.38;;;0.20;1.00;;;;;;5063735;28;20652;-74
2020/12/11 04:40:38;;;;;;;17.88;12.02;;;0.20;1.00;;;;;;5064354;28;20222;-74
2020/12/11 04:43:10;;;;;;;22.35;13.68;;;0.20;1.00;;;;;;5059977;28;20224;-74
2020/12/11 04:45:38;;;;;;;22.05;13.85;;;0.20;1.00;;;;;;5060680;28;20705;-74
2020/12/11 04:48:08;;;;;;;22.60;12.82;;;0.20;1.00;;;;;;5058482;28;20327;-74
2020/12/11 04:50:35;;;;;;;21.58;13.45;;;0.20;1.00;;;;;;5066502;28;20211;-74
2020/12/11 04:53:04;;;;;;;19.60;12.10;;;0.10;1.00;;;;;;5062370;28;20221;-75
2020/12/11 04:55:34;;;;;;;17.98;12.68;;;0.20;1.00;;;;;;5063028;28;20215;-70
2020/12/11 04:58:05;;;;;;;20.75;13.57;;;0.20;1.00;;;;;;5056468;28;20228;-74
2020/12/11 05:00:32;;;;;;;22.40;12.80;;;0.20;1.00;;;;;;5081471;28;20223;-73
2020/12/11 05:03:01;;;;;;;18.08;13.20;;;0.20;1.00;;;;;;5062403;28;20233;-71
2020/12/11 05:05:28;;;;;;;19.30;12.15;;;0.10;1.00;;;;;;5064516;28;20308;-73
2020/12/11 05:07:55;;;;;;;21.88;13.32;;;0.10;1.00;;;;;;5062313;28;20549;-74
2020/12/11 05:10:22;;;;;;;25.08;13.55;;;0.10;1.00;;;;;;5056065;28;20229;-75
2020/12/11 05:12:50;;;;;;;22.73;14.20;;;0.10;1.00;;;;;;5061339;28;20305;-73
2020/12/11 05:15:19;;;;;;;19.77;12.82;;;0.10;1.00;;;;;;5067291;28;20237;-75
2020/12/11 05:17:46;;;;;;;23.27;13.98;;;0.10;1.00;;;;;;5061152;28;20744;-74
2020/12/11 05:20:13;;;;;;;21.67;13.45;;;0.10;1.00;;;;;;5063530;28;20634;-74
2020/12/11 05:22:41;;;;;;;20.98;13.25;;;0.20;1.00;;;;;;5060625;28;20225;-73
2020/12/11 05:25:13;;;;;;;19.20;14.05;;;0.20;1.00;;;;;;5063279;28;20213;-72
2020/12/11 05:27:42;;;;;;;18.60;12.73;;;0.20;1.00;;;;;;5060748;28;20238;-72
2020/12/11 05:30:25;;;;;;;21.13;13.60;;;0.10;1.00;;;;;;5063745;28;20202;-70
2020/12/11 05:32:58;;;;;;;18.65;11.57;;;0.10;1.00;;;;;;5063447;28;20202;-72
2020/12/11 05:35:28;;;;;;;17.80;12.18;;;0.00;1.00;;;;;;5052863;28;20252;-71
2020/12/11 05:37:57;;;;;;;23.05;12.73;;;-0.10;1.00;;;;;;5062221;28;20234;-72
2020/12/11 05:40:31;;;;;;;22.63;13.40;;;-0.10;1.00;;;;;;5064864;28;20218;-73
2020/12/11 05:43:09;;;;;;;19.92;12.60;;;-0.10;1.00;;;;;;5061825;28;20274;-72
2020/12/11 05:45:38;;;;;;;20.67;13.25;;;-0.10;1.00;;;;;;5060244;28;20308;-73
2020/12/11 05:48:07;;;;;;;19.65;12.70;;;-0.20;1.00;;;;;;5061219;28;20295;-72
2020/12/11 05:50:34;;;;;;;24.35;13.93;;;-0.20;1.00;;;;;;5057510;28;20283;-73
2020/12/11 05:53:01;;;;;;;22.95;12.30;;;-0.20;1.00;;;;;;5063764;28;20210;-73
2020/12/11 05:55:28;;;;;;;17.42;11.45;;;-0.20;1.00;;;;;;5061707;28;20270;-74
2020/12/11 05:57:56;;;;;;;17.27;12.23;;;-0.20;1.00;;;;;;5063194;28;20231;-73
2020/12/11 06:00:24;;;;;;;21.83;12.55;;;-0.20;1.00;;;;;;5061381;28;20221;-72
2020/12/11 06:02:53;;;;;;;19.20;12.07;;;-0.20;1.00;;;;;;5056189;28;20764;-73
2020/12/11 06:05:22;;;;;;;24.92;11.43;;;-0.30;1.00;;;;;;5060657;28;20254;-72
2020/12/11 06:07:50;;;;;;;16.98;11.13;;;-0.30;1.00;;;;;;5057533;28;20309;-72
2020/12/11 06:10:19;;;;;;;21.70;12.80;;;-0.40;1.00;;;;;;5061576;28;20750;-73
2020/12/11 06:12:47;;;;;;;19.67;11.93;;;-0.40;1.00;;;;;;5056011;28;20219;-72
2020/12/11 06:15:25;;;;;;;21.05;12.35;;;-0.40;1.00;;;;;;5054215;28;20214;-73
2020/12/11 06:17:59;;;;;;;18.77;11.32;;;-0.30;1.00;;;;;;5056681;28;20471;-73
2020/12/11 06:20:28;;;;;;;16.98;11.00;;;-0.30;1.00;;;;;;5063000;28;20218;-72
2020/12/11 06:23:18;;;;;;;19.38;14.20;;;-0.30;1.00;;;;;;5055069;28;20495;-73
2020/12/11 06:25:50;;;;;;;18.65;13.30;;;-0.20;1.00;;;;;;5061297;28;20242;-74
2020/12/11 06:28:40;;;;;;;17.95;11.93;;;-0.10;1.00;;;;;;5056116;28;20700;-74
2020/12/11 06:31:08;;;;;;;16.15;11.13;;;-0.20;1.00;;;;;;5047691;28;20257;-72
2020/12/11 06:33:38;;;;;;;17.65;11.18;;;-0.10;1.00;;;;;;5061333;28;20213;-73
2020/12/11 06:36:06;;;;;;;20.75;12.05;;;-0.10;1.00;;;;;;5062994;28;20223;-72
2020/12/11 06:38:40;;;;;;;16.60;11.65;;;-0.10;1.00;;;;;;5066307;28;20300;-72
2020/12/11 06:41:08;;;;;;;15.93;10.30;;;0.00;1.00;;;;;;5062520;28;20214;-75
2020/12/11 06:43:39;;;;;;;22.55;11.85;;;0.00;1.00;;;;;;5063595;28;20245;-76
2020/12/11 06:46:18;;;;;;;19.08;11.93;;;0.10;1.00;;;;;;5068212;28;20238;-73
2020/12/11 06:49:09;;;;;;;16.00;11.15;;;0.20;1.00;;;;;;5063884;28;20229;-74
2020/12/11 06:52:10;;;;;;;18.35;11.18;;;0.20;1.00;;;;;;5060412;28;20713;-74
2020/12/11 06:54:53;;;;;;;18.85;11.20;;;0.30;1.00;;;;;;5067785;28;20300;-74
2020/12/11 06:57:47;;;;;;;19.33;11.95;;;0.50;1.00;;;;;;5062785;28;20232;-73
2020/12/11 07:00:34;;;;;;;17.70;12.23;;;0.60;1.00;;;;;;5063826;28;20624;-73
2020/12/11 07:03:32;;;;;;;18.67;10.77;;;0.70;1.00;;;;;;5060623;28;20227;-74
2020/12/11 07:06:05;;;;;;;14.98;10.13;;;0.80;99.90;;;;;;5065157;28;20675;-74
2020/12/11 07:08:33;;;;;;;18.38;10.57;;;0.90;99.90;;;;;;5062228;28;20222;-75
2020/12/11 07:11:08;;;;;;;17.75;10.20;;;0.90;99.90;;;;;;5061164;28;20218;-75
2020/12/11 07:13:36;;;;;;;15.18;9.25;;;0.90;1.00;;;;;;5061344;28;20331;-76
2020/12/11 07:16:04;;;;;;;14.20;9.95;;;0.70;1.00;;;;;;5060478;28;20276;-73
2020/12/11 07:18:33;;;;;;;17.42;11.98;;;0.70;99.90;;;;;;5063699;28;20487;-74
2020/12/11 07:21:00;;;;;;;14.20;10.43;;;0.60;16.30;;;;;;5061823;28;20215;-75
2020/12/11 07:23:28;;;;;;;15.82;10.88;;;0.70;60.90;;;;;;5069845;28;20225;-76
2020/12/11 07:25:56;;;;;;;20.05;11.10;;;0.60;1.00;;;;;;5080044;28;20226;-74
2020/12/11 07:28:24;;;;;;;19.17;11.95;;;0.50;99.90;;;;;;5068667;28;20222;-75
2020/12/11 07:30:51;;;;;;;13.98;8.90;;;0.40;99.90;;;;;;5063355;28;20219;-75
2020/12/11 07:33:18;;;;;;;16.00;10.32;;;0.60;99.90;;;;;;5062569;28;20231;-74
2020/12/11 07:35:47;;;;;;;15.38;10.38;;;0.70;99.90;;;;;;5058367;28;20874;-72
2020/12/11 07:38:16;;;;;;;15.27;9.60;;;0.70;99.90;;;;;;5056571;28;20628;-74
2020/12/11 07:40:52;;;;;;;14.30;10.15;;;0.80;99.90;;;;;;5058720;28;20213;-74
2020/12/11 07:43:20;;;;;;;13.38;10.88;;;0.80;99.90;;;;;;5058621;28;20260;-72
2020/12/11 07:45:47;;;;;;;18.23;11.52;;;0.80;1.00;;;;;;5060107;28;20837;-73
2020/12/11 07:48:15;;;;;;;15.25;9.80;;;0.80;1.00;;;;;;5060901;28;20233;-72
2020/12/11 07:50:42;;;;;;;14.40;10.73;;;0.80;1.00;;;;;;5060837;28;20626;-72
2020/12/11 07:53:11;;;;;;;12.02;8.55;;;0.70;1.00;;;;;;5054770;28;20334;-74
2020/12/11 07:55:38;;;;;;;15.25;10.48;;;0.70;18.20;;;;;;5055035;28;20208;-73
2020/12/11 07:58:06;;;;;;;11.98;8.82;;;0.70;60.70;;;;;;5060419;28;20299;-74
2020/12/11 08:00:37;;;;;;;15.73;11.13;;;0.70;99.90;;;;;;5059496;28;20230;-74
2020/12/11 08:03:06;;;;;;;17.90;10.60;;;0.60;99.90;;;;;;5059156;28;20234;-73
2020/12/11 08:05:35;;;;;;;18.15;11.60;;;0.60;99.90;;;;;;5058102;28;20216;-74
2020/12/11 08:08:03;;;;;;;15.25;9.82;;;0.70;99.90;;;;;;5056302;28;20767;-74
2020/12/11 08:10:41;;;;;;;16.02;10.80;;;0.80;99.90;;;;;;5060784;28;20205;-74
2020/12/11 08:13:15;;;;;;;16.85;10.60;;;1.10;43.60;;;;;;5060549;28;20221;-74
2020/12/11 08:15:43;;;;;;;16.25;10.57;;;1.30;99.90;;;;;;5057227;28;20219;-75
2020/12/11 08:18:20;;;;;;;13.80;9.15;;;1.40;1.00;;;;;;5069455;28;20227;-75
2020/12/11 08:20:54;;;;;;;17.25;10.15;;;1.70;1.00;;;;;;5053122;28;20282;-75
2020/12/11 08:23:36;;;;;;;14.60;9.27;;;2.10;94.50;;;;;;5057563;28;20637;-74
2020/12/11 08:26:06;;;;;;;14.75;9.68;;;2.50;1.00;;;;;;5058042;28;20816;-74
2020/12/11 08:28:34;;;;;;;12.82;8.98;;;3.20;99.90;;;;;;5060468;28;20607;-75
2020/12/11 08:31:24;;;;;;;13.90;9.93;;;3.90;99.90;;;;;;5041929;28;618643;-76
2020/12/11 08:34:02;;;;;;;14.88;9.80;;;4.50;1.00;;;;;;5067968;28;20271;-75
2020/12/11 08:36:30;;;;;;;13.02;9.80;;;4.40;1.00;;;;;;5059848;28;20685;-76
2020/12/11 08:39:12;;;;;;;10.85;8.68;;;3.80;1.00;;;;;;5063712;28;20270;-74
2020/12/11 08:41:42;;;;;;;12.02;8.00;;;3.50;1.00;;;;;;5062301;28;20216;-75
2020/12/11 08:44:25;;;;;;;11.23;7.85;;;3.90;1.00;;;;;;5060511;28;20234;-74
2020/12/11 08:47:06;;;;;;;9.05;7.78;;;3.80;1.00;;;;;;5056233;28;20236;-75
2020/12/11 08:49:42;;;;;;;10.68;7.43;;;3.80;1.00;;;;;;5056316;28;20219;-75
2020/12/11 08:52:10;;;;;;;11.55;7.97;;;3.40;1.00;;;;;;5057419;28;20353;-72
2020/12/11 08:54:37;;;;;;;10.95;8.93;;;3.20;1.00;;;;;;5060286;28;20761;-73
2020/12/11 08:57:04;;;;;;;11.73;8.25;;;3.10;57.30;;;;;;5057839;28;20347;-75
2020/12/11 08:59:32;;;;;;;9.55;6.80;;;2.90;99.90;;;;;;5057577;28;20282;-76
2020/12/11 09:02:01;;;;;;;10.95;8.32;;;2.80;99.90;;;;;;5057175;28;20266;-75
2020/12/11 09:04:28;;;;;;;10.85;8.10;;;2.40;99.90;;;;;;5057396;28;20222;-74
2020/12/11 09:06:56;;;;;;;10.23;7.68;;;2.20;1.00;;;;;;5072409;28;20901;-74
2020/12/11 09:09:23;;;;;;;10.13;7.85;;;2.30;99.90;;;;;;5060126;28;20216;-74
2020/12/11 09:11:50;;;;;;;8.45;6.90;;;2.10;99.90;;;;;;5060613;28;20240;-74
2020/12/11 09:14:18;;;;;;;11.60;8.80;;;2.20;99.90;;;;;;5062766;28;20210;-74
2020/12/11 09:16:46;;;;;;;14.00;8.65;;;2.20;1.00;;;;;;5062961;28;20242;-74
2020/12/11 09:19:14;;;;;;;11.18;8.30;;;2.30;15.30;;;;;;5060534;28;20225;-75
2020/12/11 09:21:41;;;;;;;13.95;9.27;;;2.40;99.90;;;;;;5056714;28;20223;-72
2020/12/11 09:24:10;;;;;;;11.73;8.50;;;2.30;7.20;;;;;;5060814;28;20234;-73
2020/12/11 09:26:37;;;;;;;13.50;9.90;;;2.40;99.90;;;;;;5064717;28;20262;-74
2020/12/11 09:29:11;;;;;;;12.07;9.48;;;2.40;1.00;;;;;;5059539;28;20724;-73
2020/12/11 09:31:40;;;;;;;10.50;8.55;;;2.50;99.90;;;;;;5060735;28;20278;-74
2020/12/11 09:34:08;;;;;;;12.18;8.65;;;2.50;99.90;;;;;;5065420;28;20205;-74
2020/12/11 09:36:36;;;;;;;12.57;9.60;;;2.70;43.30;;;;;;5065188;28;20720;-75
2020/12/11 09:39:03;;;;;;;11.57;8.82;;;2.80;99.90;;;;;;5063025;28;21048;-74
2020/12/11 09:41:34;;;;;;;11.02;8.43;;;2.90;33.50;;;;;;5061730;28;20268;-74
2020/12/11 09:44:25;;;;;;;13.00;9.20;;;2.90;1.00;;;;;;5061616;28;20269;-75
2020/12/11 09:47:02;;;;;;;13.05;8.52;;;2.70;1.00;;;;;;5061556;28;20238;-73
2020/12/11 09:49:37;;;;;;;11.38;8.35;;;2.70;99.90;;;;;;5059536;28;20234;-71
2020/12/11 09:52:20;;;;;;;13.52;8.75;;;2.70;99.90;;;;;;5056080;28;20212;-73
2020/12/11 09:54:47;;;;;;;13.18;9.15;;;2.50;58.80;;;;;;5052359;28;20222;-72
2020/12/11 09:57:15;;;;;;;13.90;8.85;;;2.40;1.00;;;;;;5062795;28;20241;-73
2020/12/11 09:59:49;;;;;;;13.98;9.80;;;2.40;1.00;;;;;;5060275;28;20266;-73
2020/12/11 10:02:26;;;;;;;12.50;8.65;;;2.40;1.00;;;;;;5056350;28;20213;-74
2020/12/11 10:04:54;;;;;;;11.55;8.52;;;2.40;1.00;;;;;;5060865;28;20218;-73
2020/12/11 10:07:24;;;;;;;11.05;8.63;;;2.40;99.90;;;;;;5064043;28;20268;-74
2020/12/11 10:09:51;;;;;;;10.88;7.70;;;2.50;99.90;;;;;;5056221;28;20205;-73
2020/12/11 10:12:22;;;;;;;11.73;9.23;;;2.60;1.00;;;;;;5059839;28;20295;-73
2020/12/11 10:14:54;;;;;;;12.77;10.10;;;2.70;99.90;;;;;;5060142;28;20482;-73
2020/12/11 10:17:22;;;;;;;12.02;8.55;;;2.80;99.90;;;;;;5059923;28;20392;-74
2020/12/11 10:19:49;;;;;;;13.43;9.13;;;2.80;1.00;;;;;;5056857;28;20222;-73
2020/12/11 10:22:18;;;;;;;13.45;8.73;;;2.80;1.00;;;;;;5053725;28;20720;-73
2020/12/11 10:24:46;;;;;;;11.85;8.88;;;3.00;99.90;;;;;;5057927;28;20229;-72
2020/12/11 10:27:15;;;;;;;12.60;7.72;;;2.90;86.30;;;;;;5065763;28;20241;-73
2020/12/11 10:29:43;;;;;;;12.90;8.68;;;3.10;99.90;;;;;;5060075;28;20708;-75
2020/12/11 10:32:10;;;;;;;13.38;8.85;;;3.10;1.00;;;;;;5052303;28;20301;-72
2020/12/11 10:34:37;;;;;;;13.15;8.85;;;2.90;99.90;;;;;;5061481;28;20301;-73
2020/12/11 10:37:08;;;;;;;10.93;7.80;;;2.80;1.00;;;;;;5056985;28;20873;-72
2020/12/11 10:39:36;;;;;;;11.38;8.68;;;3.00;99.90;;;;;;5060311;28;20244;-73
2020/12/11 10:42:04;;;;;;;8.75;7.18;;;3.10;1.00;;;;;;5058965;28;20218;-73
2020/12/11 10:44:31;;;;;;;11.85;7.45;;;3.10;99.90;;;;;;5069761;28;21193;-72
2020/12/11 10:46:59;;;;;;;11.18;8.57;;;3.10;1.00;;;;;;5062886;28;20248;-73
2020/12/11 10:49:27;;;;;;;9.57;7.10;;;3.10;99.90;;;;;;5064933;28;20214;-71
2020/12/11 10:51:54;;;;;;;11.65;8.20;;;3.10;99.90;;;;;;5055350;28;20250;-73
2020/12/11 10:54:26;;;;;;;9.13;6.82;;;3.30;1.00;;;;;;5061644;28;20206;-73
2020/12/11 10:56:54;;;;;;;10.07;7.93;;;3.60;1.00;;;;;;5064776;28;20236;-73
2020/12/11 10:59:21;;;;;;;9.80;7.82;;;3.90;1.00;;;;;;5066738;28;20211;-73
2020/12/11 11:01:49;;;;;;;9.52;8.20;;;4.10;1.00;;;;;;5056013;28;20253;-75
2020/12/11 11:04:17;;;;;;;11.93;8.00;;;4.20;1.00;;;;;;5054501;28;20239;-72
2020/12/11 11:06:49;;;;;;;8.50;6.57;;;4.00;1.00;;;;;;5056550;28;20717;-73
2020/12/11 11:09:31;;;;;;;10.25;8.10;;;4.10;1.00;;;;;;5062994;28;20212;-74
2020/12/11 11:12:07;;;;;;;10.48;7.55;;;4.10;1.00;;;;;;5063097;28;20756;-73
2020/12/11 11:20:20;;;;;;;11.27;7.40;;;3.80;99.90;;;;;;5062950;28;20312;-74
2020/12/11 11:22:54;;;;;;;10.32;8.02;;;3.80;1.00;;;;;;5062220;28;20214;-74
2020/12/11 11:25:44;;;;;;;8.75;6.38;;;3.90;72.60;;;;;;5062140;28;20694;-76
2020/12/11 11:28:13;;;;;;;10.98;7.82;;;4.00;99.90;;;;;;5065052;28;20228;-75
2020/12/11 11:30:40;;;;;;;10.07;6.85;;;4.00;99.90;;;;;;5063239;28;20703;-76
2020/12/11 11:33:07;;;;;;;9.32;7.35;;;4.00;99.90;;;;;;5062205;28;20209;-73
2020/12/11 11:35:34;;;;;;;12.00;8.38;;;4.20;99.90;;;;;;5064961;28;20234;-73
2020/12/11 11:38:06;;;;;;;8.70;7.75;;;4.40;99.90;;;;;;5060022;28;20263;-74
2020/12/11 11:40:38;;;;;;;13.98;9.57;;;4.30;25.50;;;;;;5061791;28;20314;-74
2020/12/11 11:43:05;;;;;;;8.32;7.00;;;4.30;99.90;;;;;;5059552;28;20289;-74
2020/12/11 11:45:35;;;;;;;10.23;7.57;;;4.50;1.00;;;;;;5056436;28;20316;-75
2020/12/11 11:48:06;;;;;;;8.95;7.25;;;4.70;1.00;;;;;;5063128;28;20272;-74
2020/12/11 11:50:43;;;;;;;9.25;6.68;;;4.60;1.00;;;;;;5084611;28;20228;-75
2020/12/11 11:53:14;;;;;;;8.43;6.80;;;4.70;99.90;;;;;;5060871;28;20604;-75
2020/12/11 11:55:41;;;;;;;8.23;7.05;;;4.80;99.90;;;;;;5065766;28;20223;-73
2020/12/11 11:58:09;;;;;;;8.05;6.65;;;4.60;99.90;;;;;;5064887;28;20236;-73
2020/12/11 12:00:37;;;;;;;12.35;8.30;;;4.60;1.00;;;;;;5060876;28;20224;-75
2020/12/11 12:03:04;;;;;;;10.60;7.93;;;4.40;99.90;;;;;;5067914;28;20248;-74
2020/12/11 12:05:32;;;;;;;11.52;8.20;;;4.50;99.90;;;;;;5063495;28;20247;-74
2020/12/11 12:07:59;;;;;;;12.23;7.93;;;4.40;1.00;;;;;;5061176;28;20241;-74
2020/12/11 12:10:26;;;;;;;10.85;8.35;;;4.50;1.00;;;;;;5064534;28;20219;-74
2020/12/11 12:12:53;;;;;;;11.00;7.78;;;4.40;1.00;;;;;;5069586;28;20549;-74
2020/12/11 12:15:22;;;;;;;10.23;7.97;;;4.20;1.00;;;;;;5064372;28;20309;-73
2020/12/11 12:17:56;;;;;;;11.27;7.15;;;4.30;99.90;;;;;;5062466;28;20239;-74
2020/12/11 12:20:32;;;;;;;11.63;7.97;;;4.40;99.90;;;;;;5063256;28;20222;-74
2020/12/11 12:28:43;;;;;;;10.15;7.75;;;4.90;99.90;;;;;;5064249;28;20576;-73
2020/12/11 12:31:14;;;;;;;11.60;8.85;;;5.10;99.90;;;;;;5060220;28;20336;-74
2020/12/11 12:42:21;;;;;;;11.32;8.18;;;4.60;1.00;;;;;;5016453;28;20689;-71
2020/12/11 12:44:48;;;;;;;11.23;8.13;;;4.70;1.00;;;;;;5067096;28;20370;-71
2020/12/11 12:47:15;;;;;;;10.70;8.38;;;4.50;1.00;;;;;;5064441;28;20249;-71
2020/12/11 12:49:44;;;;;;;13.70;8.48;;;4.50;99.90;;;;;;5081536;28;20299;-72
2020/12/11 12:52:11;;;;;;;12.30;9.93;;;4.50;99.90;;;;;;5066463;28;20315;-74
2020/12/11 12:54:38;;;;;;;12.18;9.10;;;4.60;99.90;;;;;;5067559;28;20468;-74
2020/12/11 12:57:09;;;;;;;12.27;8.25;;;4.60;99.90;;;;;;5065186;28;20711;-73
2020/12/11 12:59:43;;;;;;;11.27;9.00;;;4.70;99.90;;;;;;5061470;28;20215;-72
2020/12/11 13:05:04;;;;;;;11.85;7.63;;;4.50;1.00;;;;;;5053034;28;20239;-73
2020/12/11 13:07:31;;;;;;;9.90;8.13;;;4.50;1.00;;;;;;5067679;28;20241;-73
2020/12/11 13:09:59;;;;;;;9.75;6.93;;;4.30;99.90;;;;;;5058675;28;20218;-74
2020/12/11 13:12:26;;;;;;;9.98;7.10;;;4.20;99.90;;;;;;5064135;28;20230;-75
2020/12/11 13:14:53;;;;;;;9.05;7.88;;;4.10;1.00;;;;;;5065139;28;20217;-75
2020/12/11 13:17:20;;;;;;;11.55;8.10;;;4.10;1.00;;;;;;5066177;28;20250;-76
2020/12/11 13:19:47;;;;;;;9.43;6.85;;;4.10;1.00;;;;;;5063437;28;20218;-71
2020/12/11 13:27:42;;;;;;;10.13;8.18;;;3.80;1.00;;;;;;5063845;28;20515;-72
2020/12/11 13:30:11;;;;;;;12.20;8.85;;;3.80;99.90;;;;;;5067156;28;20341;-71